Time,TemperatureF,DewpointF,PressureIn,WindDirection,WindDirectionDegrees,WindSpeedMPH,WindSpeedGustMPH,Humidity,HourlyPrecipIn,Conditions,Clouds,dailyrainin,SoftwareType,DateUTC
2013-02-28 00:02:00,49.1,7.5,30.22,WSW,247,1.7,-999.0,18,-99.99,,,0.00,Acu-Link.com,2013-02-28 08:02:00,
2013-02-28 00:18:00,48.2,6.7,30.23,NW,315,0.0,-999.0,18,-99.99,,,0.00,Acu-Link.com,2013-02-28 08:18:00,
2013-02-28 00:33:00,48.7,7.1,30.23,WNW,292,2.2,-999.0,18,-99.99,,,0.00,Acu-Link.com,2013-02-28 08:33:00,
2013-02-28 00:48:00,48.6,10.5,30.23,WNW,292,0.0,-999.0,21,-99.99,,,0.00,Acu-Link.com,2013-02-28 08:48:00,
2013-02-28 01:19:00,46.8,11.9,30.23,NNE,22,0.0,-999.0,24,-99.99,,,0.00,Acu-Link.com,2013-02-28 09:19:00,
2013-02-28 01:34:00,45.1,11.4,30.23,WNW,292,0.0,-999.0,25,-99.99,,,0.00,Acu-Link.com,2013-02-28 09:34:00,
2013-02-28 01:49:00,45.1,10.5,30.23,West,270,2.7,-999.0,24,-99.99,,,0.00,Acu-Link.com,2013-02-28 09:49:00,
2013-02-28 02:05:00,45.9,9.2,30.23,West,270,1.1,-999.0,22,-99.99,,,0.00,Acu-Link.com,2013-02-28 10:05:00,
2013-02-28 02:21:00,47.5,7.3,30.22,SSE,157,0.0,-999.0,19,-99.99,,,0.00,Acu-Link.com,2013-02-28 10:21:00,
2013-02-28 02:36:00,48.9,11.8,30.22,SSW,202,0.0,-999.0,22,-99.99,,,0.00,Acu-Link.com,2013-02-28 10:36:00,
2013-02-28 02:51:00,47.3,15.0,30.21,North,0,1.1,-999.0,27,-99.99,,,0.00,Acu-Link.com,2013-02-28 10:51:00,
2013-02-28 03:07:00,46.4,12.5,30.21,NNE,22,0.0,-999.0,25,-99.99,,,0.00,Acu-Link.com,2013-02-28 11:07:00,
2013-02-28 03:22:00,45.1,13.1,30.21,SE,135,0.0,-999.0,27,-99.99,,,0.00,Acu-Link.com,2013-02-28 11:22:00,
2013-02-28 03:38:00,44.8,12.9,30.22,NE,45,0.0,-999.0,27,-99.99,,,0.00,Acu-Link.com,2013-02-28 11:38:00,
2013-02-28 03:53:00,44.4,12.5,30.22,SW,225,0.0,-999.0,27,-99.99,,,0.00,Acu-Link.com,2013-02-28 11:53:00,
2013-02-28 04:09:00,44.6,12.7,30.22,South,180,1.7,-999.0,27,-99.99,,,0.00,Acu-Link.com,2013-02-28 12:09:00,
2013-02-28 04:24:00,44.6,11.9,30.23,WNW,292,0.0,-999.0,26,-99.99,,,0.00,Acu-Link.com,2013-02-28 12:24:00,
2013-02-28 04:39:00,45.1,10.5,30.23,ENE,67,2.2,-999.0,24,-99.99,,,0.00,Acu-Link.com,2013-02-28 12:39:00,
2013-02-28 04:55:00,46.6,9.8,30.23,NNW,337,1.1,-999.0,22,-99.99,,,0.00,Acu-Link.com,2013-02-28 12:55:00,
2013-02-28 05:10:00,46.8,11.9,30.24,WSW,247,0.0,-999.0,24,-99.99,,,0.00,Acu-Link.com,2013-02-28 13:10:00,
2013-02-28 05:26:00,45.5,13.5,30.23,West,270,0.0,-999.0,27,-99.99,,,0.00,Acu-Link.com,2013-02-28 13:26:00,
2013-02-28 05:41:00,45.1,14.8,30.24,WSW,247,0.0,-999.0,29,-99.99,,,0.00,Acu-Link.com,2013-02-28 13:41:00,
2013-02-28 05:56:00,44.1,13.9,30.24,West,270,1.7,-999.0,29,-99.99,,,0.00,Acu-Link.com,2013-02-28 13:56:00,
2013-02-28 06:11:00,46.2,12.3,30.24,WNW,292,2.2,-999.0,25,-99.99,,,0.00,Acu-Link.com,2013-02-28 14:11:00,
2013-02-28 06:27:00,46.2,14.1,30.24,East,90,0.0,-999.0,27,-99.99,,,0.00,Acu-Link.com,2013-02-28 14:27:00,
2013-02-28 06:42:00,45.9,14.7,30.25,South,180,0.0,-999.0,28,-99.99,,,0.00,Acu-Link.com,2013-02-28 14:42:00,
2013-02-28 06:58:00,46.6,15.3,30.25,West,270,2.7,-999.0,28,-99.99,,,0.00,Acu-Link.com,2013-02-28 14:58:00,
2013-02-28 07:13:00,48.6,16.2,30.25,South,180,0.0,-999.0,27,-99.99,,,0.00,Acu-Link.com,2013-02-28 15:13:00,
2013-02-28 07:28:00,50.2,17.5,30.26,West,270,0.0,-999.0,27,-99.99,,,0.00,Acu-Link.com,2013-02-28 15:28:00,
2013-02-28 07:44:00,54.3,17.3,30.26,SW,225,1.1,-999.0,23,-99.99,,,0.00,Acu-Link.com,2013-02-28 15:44:00,
2013-02-28 07:59:00,59.0,22.3,30.26,SSW,202,0.0,-999.0,24,-99.99,,,0.00,Acu-Link.com,2013-02-28 15:59:00,
2013-02-28 08:14:00,62.6,24.3,30.26,SSE,157,0.0,-999.0,23,-99.99,,,0.00,Acu-Link.com,2013-02-28 16:14:00,
2013-02-28 08:29:00,63.3,19.1,30.25,WNW,292,0.0,-999.0,18,-99.99,,,0.00,Acu-Link.com,2013-02-28 16:29:00,
2013-02-28 08:45:00,65.7,11.7,30.25,SSE,157,0.0,-999.0,12,-99.99,,,0.00,Acu-Link.com,2013-02-28 16:45:00,
2013-02-28 09:01:00,68.4,9.7,30.25,ESE,112,0.0,-999.0,10,-99.99,,,0.00,Acu-Link.com,2013-02-28 17:01:00,
2013-02-28 09:16:00,68.9,2.3,30.26,North,0,2.2,-999.0,7,-99.99,,,0.00,Acu-Link.com,2013-02-28 17:16:00,
2013-02-28 09:31:00,70.2,3.3,30.27,WNW,292,2.7,-999.0,7,-99.99,,,0.00,Acu-Link.com,2013-02-28 17:31:00,
2013-02-28 09:46:00,70.5,0.2,30.26,SSW,202,0.0,-999.0,6,-99.99,,,0.00,Acu-Link.com,2013-02-28 17:46:00,
2013-02-28 10:02:00,72.5,-2.2,30.26,SE,135,1.7,-999.0,5,-99.99,,,0.00,Acu-Link.com,2013-02-28 18:02:00,
2013-02-28 10:17:00,72.5,1.6,30.26,SSW,202,0.0,-999.0,6,-99.99,,,0.00,Acu-Link.com,2013-02-28 18:17:00,
2013-02-28 10:32:00,74.3,-5.6,30.26,SSE,157,1.7,-999.0,4,-99.99,,,0.00,Acu-Link.com,2013-02-28 18:32:00,
2013-02-28 10:48:00,75.2,-0.3,30.25,SSW,202,2.2,-999.0,5,-99.99,,,0.00,Acu-Link.com,2013-02-28 18:48:00,
2013-02-28 11:03:00,75.9,-10.4,30.25,South,180,2.7,-999.0,3,-99.99,,,0.00,Acu-Link.com,2013-02-28 19:03:00,
2013-02-28 11:18:00,75.6,-18.6,30.24,West,270,2.2,-999.0,2,-99.99,,,0.00,Acu-Link.com,2013-02-28 19:18:00,
2013-02-28 11:34:00,77.0,4.9,30.24,SE,135,3.7,-999.0,6,-99.99,,,0.00,Acu-Link.com,2013-02-28 19:34:00,
2013-02-28 11:49:00,76.3,-10.1,30.23,West,270,2.2,-999.0,3,-99.99,,,0.00,Acu-Link.com,2013-02-28 19:49:00,
2013-02-28 12:04:00,78.3,-8.8,30.23,South,180,0.0,-999.0,3,-99.99,,,0.00,Acu-Link.com,2013-02-28 20:04:00,
2013-02-28 12:20:00,78.4,-16.8,30.22,West,270,3.7,-999.0,2,-99.99,,,0.00,Acu-Link.com,2013-02-28 20:20:00,
2013-02-28 12:35:00,79.7,-7.9,30.21,North,0,1.1,-999.0,3,-99.99,,,0.00,Acu-Link.com,2013-02-28 20:35:00,
2013-02-28 12:50:00,79.2,-2.3,30.21,South,180,4.2,-999.0,4,-99.99,,,0.00,Acu-Link.com,2013-02-28 20:50:00,
2013-02-28 13:05:00,79.5,-16.1,30.19,South,180,1.7,-999.0,2,-99.99,,,0.00,Acu-Link.com,2013-02-28 21:05:00,
2013-02-28 13:21:00,80.6,-15.4,30.19,NE,45,2.2,-999.0,2,-99.99,,,0.00,Acu-Link.com,2013-02-28 21:21:00,
2013-02-28 13:36:00,79.9,-7.7,30.18,South,180,2.7,-999.0,3,-99.99,,,0.00,Acu-Link.com,2013-02-28 21:36:00,
2013-02-28 13:51:00,81.7,-14.7,30.18,SW,225,1.7,-999.0,2,-99.99,,,0.00,Acu-Link.com,2013-02-28 21:51:00,
2013-02-28 14:06:00,82.8,-5.8,30.18,SSE,157,0.0,-999.0,3,-99.99,,,0.00,Acu-Link.com,2013-02-28 22:06:00,
2013-02-28 14:22:00,79.9,-15.8,30.17,West,270,2.2,-999.0,2,-99.99,,,0.00,Acu-Link.com,2013-02-28 22:22:00,
2013-02-28 14:37:00,82.6,-5.9,30.17,WNW,292,1.1,-999.0,3,-99.99,,,0.00,Acu-Link.com,2013-02-28 22:37:00,
2013-02-28 14:52:00,78.4,-16.8,30.17,NNW,337,1.1,-999.0,2,-99.99,,,0.00,Acu-Link.com,2013-02-28 22:52:00,
2013-02-28 15:08:00,81.1,-28.2,30.16,South,180,2.7,-999.0,1,-99.99,,,0.00,Acu-Link.com,2013-02-28 23:08:00,
2013-02-28 15:23:00,82.0,-14.5,30.16,ESE,112,1.7,-999.0,2,-99.99,,,0.00,Acu-Link.com,2013-02-28 23:23:00,
2013-02-28 15:38:00,80.8,-7.1,30.16,ENE,67,1.1,-999.0,3,-99.99,,,0.00,Acu-Link.com,2013-02-28 23:38:00,
2013-02-28 15:54:00,80.8,-1.2,30.15,West,270,2.2,-999.0,4,-99.99,,,0.00,Acu-Link.com,2013-02-28 23:54:00,
2013-02-28 16:09:00,80.6,-7.3,30.15,SE,135,1.7,-999.0,3,-99.99,,,0.00,Acu-Link.com,2013-03-01 00:09:00,
2013-02-28 16:24:00,79.9,-1.8,30.15,South,180,2.2,-999.0,4,-99.99,,,0.00,Acu-Link.com,2013-03-01 00:24:00,
2013-02-28 16:39:00,78.4,1.9,30.15,South,180,1.1,-999.0,5,-99.99,,,0.00,Acu-Link.com,2013-03-01 00:39:00,
2013-02-28 16:55:00,79.2,6.4,30.15,South,180,0.0,-999.0,6,-99.99,,,0.00,Acu-Link.com,2013-03-01 00:55:00,
2013-02-28 17:10:00,77.0,13.9,30.16,SSE,157,0.0,-999.0,9,-99.99,,,0.00,Acu-Link.com,2013-03-01 01:10:00,
2013-02-28 17:25:00,75.2,9.9,30.16,NE,45,1.1,-999.0,8,-99.99,,,0.00,Acu-Link.com,2013-03-01 01:25:00,
2013-02-28 17:41:00,72.3,7.7,30.16,South,180,0.0,-999.0,8,-99.99,,,0.00,Acu-Link.com,2013-03-01 01:41:00,
2013-02-28 17:56:00,70.7,0.3,30.17,NNE,22,1.7,-999.0,6,-99.99,,,0.00,Acu-Link.com,2013-03-01 01:56:00,
2013-02-28 18:11:00,69.3,12.6,30.18,SSW,202,1.7,-999.0,11,-99.99,,,0.00,Acu-Link.com,2013-03-01 02:11:00,
2013-02-28 18:26:00,67.5,16.6,30.18,SW,225,0.0,-999.0,14,-99.99,,,0.00,Acu-Link.com,2013-03-01 02:26:00,
2013-02-28 18:42:00,65.8,19.8,30.19,NW,315,0.0,-999.0,17,-99.99,,,0.00,Acu-Link.com,2013-03-01 02:42:00,
2013-02-28 18:57:00,64.6,14.3,30.20,SSE,157,1.1,-999.0,14,-99.99,,,0.00,Acu-Link.com,2013-03-01 02:57:00,
2013-02-28 19:12:00,65.5,7.5,30.19,NW,315,2.2,-999.0,10,-99.99,,,0.00,Acu-Link.com,2013-03-01 03:12:00,
2013-02-28 19:28:00,67.8,6.9,30.20,ESE,112,0.0,-999.0,9,-99.99,,,0.00,Acu-Link.com,2013-03-01 03:28:00,
2013-02-28 19:43:00,66.6,8.4,30.21,SSW,202,0.0,-999.0,10,-99.99,,,0.00,Acu-Link.com,2013-03-01 03:43:00,
2013-02-28 19:58:00,64.8,9.1,30.22,SSW,202,0.0,-999.0,11,-99.99,,,0.00,Acu-Link.com,2013-03-01 03:58:00,
2013-02-28 20:14:00,63.9,10.3,30.22,NNE,22,1.1,-999.0,12,-99.99,,,0.00,Acu-Link.com,2013-03-01 04:14:00,
2013-02-28 20:29:00,62.4,15.6,30.23,South,180,2.7,-999.0,16,-99.99,,,0.00,Acu-Link.com,2013-03-01 04:29:00,
2013-02-28 20:44:00,61.2,17.4,30.23,NNE,22,0.0,-999.0,18,-99.99,,,0.00,Acu-Link.com,2013-03-01 04:44:00,
2013-02-28 21:00:00,60.3,12.5,30.23,SSE,157,0.0,-999.0,15,-99.99,,,0.00,Acu-Link.com,2013-03-01 05:00:00,
2013-02-28 21:15:00,59.2,13.1,30.23,West,270,0.0,-999.0,16,-99.99,,,0.00,Acu-Link.com,2013-03-01 05:15:00,
2013-02-28 21:30:00,58.1,13.5,30.23,WSW,247,2.2,-999.0,17,-99.99,,,0.00,Acu-Link.com,2013-03-01 05:30:00,
2013-02-28 21:46:00,56.8,15.0,30.24,SSW,202,0.0,-999.0,19,-99.99,,,0.00,Acu-Link.com,2013-03-01 05:46:00,
2013-02-28 22:01:00,56.5,17.1,30.23,SE,135,0.0,-999.0,21,-99.99,,,0.00,Acu-Link.com,2013-03-01 06:01:00,
2013-02-28 22:17:00,55.8,16.5,30.24,WNW,292,0.0,-999.0,21,-99.99,,,0.00,Acu-Link.com,2013-03-01 06:17:00,
2013-02-28 22:32:00,55.9,14.3,30.23,NNW,337,0.0,-999.0,19,-99.99,,,0.00,Acu-Link.com,2013-03-01 06:32:00,
2013-02-28 22:48:00,55.4,17.2,30.24,ENE,67,2.2,-999.0,22,-99.99,,,0.00,Acu-Link.com,2013-03-01 06:48:00,
2013-02-28 23:03:00,54.0,18.0,30.23,NNW,337,0.0,-999.0,24,-99.99,,,0.00,Acu-Link.com,2013-03-01 07:03:00,
2013-02-28 23:18:00,53.4,18.5,30.23,NNE,22,0.0,-999.0,25,-99.99,,,0.00,Acu-Link.com,2013-03-01 07:18:00,
2013-02-28 23:33:00,52.9,20.7,30.24,NNE,22,0.0,-999.0,28,-99.99,,,0.00,Acu-Link.com,2013-03-01 07:33:00,
2013-02-28 23:49:00,52.3,20.2,30.24,WNW,292,0.0,-999.0,28,-99.99,,,0.00,Acu-Link.com,2013-03-01 07:49:00,